Time;durP1;ratioP1;P1;durP2;ratioP2;P2;SDS_P1;SDS_P2;PMS_P1;PMS_P2;Temp;Humidity;BMP_temperature;BMP_pressure;BME280_temperature;BME280_humidity;BME280_pressure;Samples;Min_cycle;Max_cycle;Signal;HPM_P1;HPM_P2
2023/01/21 00:00:38;;;;;;;3.75;2.97;;;;;;;5.96;100.00;97717.97;5048803;28;20220;-62
2023/01/21 00:03:03;;;;;;;8.05;4.40;;;;;;;5.93;100.00;97721.53;5049884;28;20243;-62
2023/01/21 00:05:29;;;;;;;6.28;3.90;;;;;;;5.78;100.00;97699.31;5050672;28;20186;-62
2023/01/21 00:07:54;;;;;;;16.55;7.82;;;;;;;5.77;100.00;97710.50;5050586;28;20194;-62
2023/01/21 00:10:20;;;;;;;4.63;3.67;;;;;;;5.68;100.00;97702.53;5050040;28;20284;-62
2023/01/21 00:12:45;;;;;;;8.57;5.30;;;;;;;5.67;100.00;97706.03;5050341;28;20185;-62
2023/01/21 00:15:10;;;;;;;1.00;1.00;;;;;;;5.54;100.00;97708.50;5049837;28;20220;-62
2023/01/21 00:17:36;;;;;;;1.10;1.10;;;;;;;5.52;100.00;97712.91;5049998;28;20198;-62
2023/01/21 00:20:03;;;;;;;1.00;1.00;;;;;;;5.49;100.00;97728.47;5049691;28;20217;-61
2023/01/21 00:22:29;;;;;;;0.93;0.93;;;;;;;5.84;100.00;97781.13;5049777;28;20755;-62
2023/01/21 00:24:54;;;;;;;1.10;1.10;;;;;;;5.62;100.00;97762.78;5049801;28;20268;-62
2023/01/21 00:27:20;;;;;;;1.20;1.20;;;;;;;5.58;100.00;97774.13;5050334;28;20181;-62
2023/01/21 00:29:45;;;;;;;1.13;1.05;;;;;;;5.14;100.00;97727.13;5049999;28;20617;-62
2023/01/21 00:32:10;;;;;;;2.15;1.00;;;;;;;5.30;100.00;97747.63;5049683;28;20268;-62
2023/01/21 00:34:36;;;;;;;1.33;1.00;;;;;;;5.40;100.00;97759.81;5049848;28;20695;-62
2023/01/21 00:37:02;;;;;;;1.05;1.05;;;;;;;5.62;100.00;97785.84;5050040;28;20702;-62
2023/01/21 00:39:27;;;;;;;1.20;1.10;;;;;;;5.72;100.00;97781.00;5051249;28;20692;-62
2023/01/21 00:41:52;;;;;;;3.15;1.40;;;;;;;5.22;100.00;97690.78;5051991;28;20174;-62
2023/01/21 00:44:18;;;;;;;1.17;1.17;;;;;;;5.45;100.00;97739.00;5054268;28;20178;-62
2023/01/21 00:46:43;;;;;;;1.38;1.27;;;;;;;5.37;100.00;97729.19;5056343;28;20239;-62
2023/01/21 00:49:09;;;;;;;1.23;1.20;;;;;;;5.58;100.00;97774.13;5056084;28;20170;-62
2023/01/21 00:51:35;;;;;;;1.35;1.25;;;;;;;5.15;100.00;97715.16;5055772;28;20190;-62
2023/01/21 00:54:00;;;;;;;1.17;1.17;;;;;;;5.23;100.00;97728.34;5055764;28;20254;-62
2023/01/21 00:56:25;;;;;;;1.25;1.20;;;;;;;4.77;100.00;97675.50;5055934;28;20181;-62
2023/01/21 00:58:51;;;;;;;1.42;1.42;;;;;;;5.27;100.00;97763.16;5055779;28;20202;-62
2023/01/21 01:01:21;;;;;;;1.38;1.27;;;;;;;5.28;100.00;97775.06;5055607;28;20632;-62
2023/01/21 01:03:48;;;;;;;3.40;1.23;;;;;;;5.27;100.00;97768.28;5055877;28;20170;-62
2023/01/21 01:06:19;;;;;;;1.38;1.30;;;;;;;4.93;100.00;97733.50;5055526;28;20196;-62
2023/01/21 01:08:46;;;;;;;0.90;0.90;;;;;;;4.53;100.00;97692.25;5055464;28;20232;-62
2023/01/21 01:11:13;;;;;;;1.10;1.10;;;;;;;4.82;100.00;97740.97;5055637;28;20259;-62
2023/01/21 01:13:39;;;;;;;1.45;1.35;;;;;;;4.94;100.00;97778.72;5055605;28;20251;-62
2023/01/21 01:16:05;;;;;;;1.00;1.00;;;;;;;4.48;100.00;97715.56;5055782;28;20185;-60
2023/01/21 01:18:32;;;;;;;1.30;1.30;;;;;;;5.01;100.00;97772.34;5054849;28;20565;-61
2023/01/21 01:20:59;;;;;;;1.10;1.10;;;;;;;4.57;100.00;97699.72;5055096;28;20185;-60
2023/01/21 01:23:25;;;;;;;1.20;1.10;;;;;;;4.76;100.00;97714.84;5055069;28;20244;-60
2023/01/21 01:25:55;;;;;;;1.48;1.33;;;;;;;5.12;100.00;97759.75;5055053;28;20587;-60
2023/01/21 01:28:20;;;;;;;1.10;1.10;;;;;;;5.05;100.00;97750.75;5054739;28;20174;-60
2023/01/21 01:30:45;;;;;;;1.50;1.50;;;;;;;4.74;100.00;97709.84;5055268;28;20523;-61
2023/01/21 01:33:11;;;;;;;1.60;1.50;;;;;;;4.73;100.00;97700.47;5054691;28;20765;-61
2023/01/21 01:35:36;;;;;;;1.77;1.40;;;;;;;4.88;100.00;97750.88;5054714;28;20201;-60
2023/01/21 01:38:06;;;;;;;1.30;1.20;;;;;;;4.34;100.00;97668.59;5055169;28;20228;-61
2023/01/21 01:40:33;;;;;;;2.17;2.03;;;;;;;4.78;100.00;97749.72;5055315;28;20197;-61
2023/01/21 01:42:58;;;;;;;2.72;1.58;;;;;;;4.80;100.00;97731.72;5055088;28;20184;-61
2023/01/21 01:45:24;;;;;;;1.42;1.23;;;;;;;4.56;100.00;97698.03;5054769;28;20556;-61
2023/01/21 01:48:05;;;;;;;1.13;1.13;;;;;;;4.82;100.00;97735.84;5055240;28;20205;-61
2023/01/21 01:50:36;;;;;;;1.30;1.30;;;;;;;4.67;100.00;97689.78;5055186;28;20586;-61
2023/01/21 01:53:01;;;;;;;2.47;1.27;;;;;;;4.73;100.00;97687.66;5054943;28;20166;-61
2023/01/21 01:55:31;;;;;;;1.70;1.60;;;;;;;5.15;100.00;97746.75;5053500;28;20698;-61
2023/01/21 01:57:57;;;;;;;1.92;1.58;;;;;;;4.76;100.00;97677.25;5054993;28;20256;-61
2023/01/21 02:00:24;;;;;;;1.50;1.40;;;;;;;5.01;100.00;97728.75;5054885;28;20230;-61
2023/01/21 02:05:39;;;;;;;2.00;1.90;;;;;;;4.64;100.00;97688.22;5054653;28;20260;-61
2023/01/21 02:08:05;;;;;;;1.67;1.58;;;;;;;4.19;100.00;97629.31;5054538;28;20174;-61
2023/01/21 02:10:34;;;;;;;2.05;1.83;;;;;;;4.53;100.00;97677.72;5054292;28;20205;-61
2023/01/21 02:13:00;;;;;;;1.80;1.65;;;;;;;4.48;100.00;97663.56;5054242;28;20170;-61
2023/01/21 02:15:35;;;;;;;1.50;1.40;;;;;;;4.87;100.00;97738.97;5054108;28;20246;-61
2023/01/21 02:18:14;;;;;;;1.67;1.58;;;;;;;5.10;100.00;97746.19;5054162;28;20624;-61
2023/01/21 02:21:02;;;;;;;1.45;1.35;;;;;;;5.03;100.00;97736.38;5054018;28;20231;-61
2023/01/21 02:23:42;;;;;;;2.72;1.35;;;;;;;5.02;100.00;97742.41;5054876;28;20205;-61
2023/01/21 02:26:07;;;;;;;1.20;1.15;;;;;;;4.92;100.00;97742.13;5053934;28;20231;-61
2023/01/21 02:28:51;;;;;;;1.30;1.20;;;;;;;4.97;100.00;97741.84;5054199;28;20578;-61
2023/01/21 02:31:52;;;;;;;4.50;1.20;;;;;;;5.01;100.00;97743.34;5054166;28;20178;-61
2023/01/21 02:34:35;;;;;;;0.98;0.98;;;;;;;5.13;100.00;97738.31;5051465;28;20193;-61
2023/01/21 02:37:28;;;;;;;1.00;1.00;;;;;;;5.22;100.00;97755.75;5052026;28;20205;-61
2023/01/21 02:40:17;;;;;;;1.40;1.30;;;;;;;5.28;100.00;97750.25;5052148;28;20201;-61
2023/01/21 02:42:50;;;;;;;1.23;1.20;;;;;;;5.25;100.00;97745.28;5051444;28;20279;-61
2023/01/21 02:45:32;;;;;;;2.13;1.30;;;;;;;5.22;100.00;97716.44;5051270;28;20202;-61
2023/01/21 02:48:05;;;;;;;1.63;1.08;;;;;;;5.50;100.00;97750.66;5051561;28;20178;-61
2023/01/21 02:50:49;;;;;;;1.20;1.20;;;;;;;5.53;100.00;97744.53;5051552;28;20177;-61
2023/01/21 02:53:34;;;;;;;1.10;1.10;;;;;;;5.26;100.00;97690.53;5051041;28;20185;-61
2023/01/21 02:56:16;;;;;;;1.48;1.40;;;;;;;5.43;100.00;97726.25;5051593;28;20217;-62
2023/01/21 02:58:48;;;;;;;1.00;1.00;;;;;;;5.09;100.00;97688.16;5050920;28;20189;-61
2023/01/21 03:01:13;;;;;;;1.45;1.35;;;;;;;5.28;100.00;97723.78;5051001;28;20190;-61
2023/01/21 03:04:03;;;;;;;1.77;1.67;;;;;;;5.01;100.00;97726.19;5050849;28;20188;-61
2023/01/21 03:06:40;;;;;;;1.23;1.13;;;;;;;5.01;100.00;97726.19;5051265;28;20613;-61
2023/01/21 03:09:23;;;;;;;1.00;1.00;;;;;;;5.09;100.00;97730.88;5052788;28;20196;-61
2023/01/21 03:12:00;;;;;;;1.55;1.30;;;;;;;4.62;100.00;97676.41;5053385;28;20632;-61
2023/01/21 03:17:43;;;;;;;1.13;1.13;;;;;;;4.96;100.00;97738.44;5051201;28;20193;-61
2023/01/21 03:20:21;;;;;;;2.22;1.30;;;;;;;4.52;100.00;97665.00;5051218;28;20213;-61
2023/01/21 03:22:49;;;;;;;1.00;1.00;;;;;;;4.97;100.00;97717.06;5051068;28;20182;-61
2023/01/21 03:25:16;;;;;;;2.20;1.17;;;;;;;4.84;100.00;97702.47;5050802;28;20182;-61
2023/01/21 03:27:45;;;;;;;1.00;1.00;;;;;;;4.72;100.00;97693.72;5050505;28;20177;-61
2023/01/21 03:30:22;;;;;;;1.00;1.00;;;;;;;4.87;100.00;97715.91;5050451;28;20186;-61
2023/01/21 03:32:50;;;;;;;1.02;1.02;;;;;;;4.98;100.00;97700.75;5050400;28;20707;-61
2023/01/21 03:35:29;;;;;;;1.23;1.23;;;;;;;4.84;100.00;97710.94;5050326;28;20197;-61
2023/01/21 03:38:10;;;;;;;1.40;1.30;;;;;;;4.25;100.00;97605.13;5051156;28;20268;-61
2023/01/21 03:40:47;;;;;;;1.95;1.10;;;;;;;4.43;100.00;97645.84;5050499;28;20205;-62
2023/01/21 03:43:12;;;;;;;1.23;1.23;;;;;;;4.45;100.00;97664.53;5051097;28;20197;-61
2023/01/21 03:46:07;;;;;;;2.60;2.40;;;;;;;4.71;100.00;97724.53;5050738;28;20223;-61
2023/01/21 03:48:32;;;;;;;2.42;2.22;;;;;;;4.83;100.00;97729.81;5050247;28;20660;-61
2023/01/21 03:51:04;;;;;;;1.40;1.40;;;;;;;4.93;100.00;97715.56;5050085;28;20220;-61
2023/01/21 03:53:29;;;;;;;2.38;2.17;;;;;;;4.99;100.00;97722.91;5051081;28;20708;-60
2023/01/21 03:55:55;;;;;;;1.15;1.15;;;;;;;4.71;100.00;97674.13;5052671;28;20268;-61
2023/01/21 03:58:20;;;;;;;1.20;1.20;;;;;;;4.74;100.00;97709.00;5052342;28;20587;-61
2023/01/21 04:00:48;;;;;;;1.00;1.00;;;;;;;4.69;100.00;97726.38;5052287;28;20578;-61
2023/01/21 04:03:13;;;;;;;2.20;1.73;;;;;;;4.59;100.00;97727.78;5053189;28;20180;-61
2023/01/21 04:05:38;;;;;;;1.40;1.40;;;;;;;4.38;100.00;97672.66;5052235;28;20178;-60
2023/01/21 04:08:04;;;;;;;1.40;1.30;;;;;;;4.69;100.00;97714.41;5052230;28;20170;-61
2023/01/21 04:10:29;;;;;;;1.20;1.20;;;;;;;4.32;100.00;97661.00;5052213;28;20632;-60
2023/01/21 04:12:55;;;;;;;1.20;1.20;;;;;;;4.67;100.00;97731.56;5052183;28;20185;-61
2023/01/21 04:15:20;;;;;;;2.15;1.35;;;;;;;4.28;100.00;97672.34;5052213;28;20209;-61
2023/01/21 04:17:45;;;;;;;1.40;1.30;;;;;;;4.28;100.00;97680.03;5052199;28;20166;-61
2023/01/21 04:20:11;;;;;;;3.58;2.25;;;;;;;4.65;100.00;97743.66;5073504;28;20694;-61
2023/01/21 04:22:37;;;;;;;3.60;3.30;;;;;;;4.71;100.00;97747.59;5074129;28;20189;-61
2023/01/21 04:25:04;;;;;;;2.35;2.15;;;;;;;4.66;100.00;97741.94;5074056;28;20196;-61
2023/01/21 04:27:29;;;;;;;1.63;1.52;;;;;;;4.69;100.00;97760.50;5074174;28;20177;-61
2023/01/21 04:29:55;;;;;;;1.38;1.15;;;;;;;4.62;100.00;97764.31;5073910;28;20196;-61
2023/01/21 04:32:20;;;;;;;3.65;2.47;;;;;;;4.57;100.00;97734.75;5074655;28;20173;-62
2023/01/21 04:34:45;;;;;;;2.00;1.90;;;;;;;4.77;100.00;97750.66;5074054;28;20234;-61
2023/01/21 04:37:11;;;;;;;2.00;1.90;;;;;;;4.44;100.00;97697.91;5074157;28;20188;-61
2023/01/21 04:39:36;;;;;;;5.20;4.18;;;;;;;4.76;100.00;97754.13;5073544;28;20223;-62
2023/01/21 04:42:05;;;;;;;4.25;3.50;;;;;;;4.92;100.00;97765.19;5073658;28;20295;-61
2023/01/21 04:44:30;;;;;;;2.22;2.03;;;;;;;4.60;100.00;97709.78;5073871;28;20652;-61
2023/01/21 04:46:55;;;;;;;2.47;2.20;;;;;;;4.61;100.00;97716.53;5073767;28;20361;-61
2023/01/21 04:49:21;;;;;;;2.63;2.35;;;;;;;4.67;100.00;97767.44;5073511;28;20192;-62
2023/01/21 04:51:46;;;;;;;3.15;2.78;;;;;;;4.61;100.00;97766.97;5060074;28;20189;-61
2023/01/21 04:54:12;;;;;;;2.05;1.83;;;;;;;4.02;100.00;97706.19;5055752;28;20280;-61
2023/01/21 04:56:37;;;;;;;3.47;2.05;;;;;;;4.17;100.00;97733.53;5056261;28;20170;-62
2023/01/21 04:59:03;;;;;;;1.50;1.40;;;;;;;4.13;100.00;97693.66;5055481;28;20205;-62
2023/01/21 05:01:28;;;;;;;2.00;1.90;;;;;;;4.21;100.00;97688.91;5055603;28;20185;-62
2023/01/21 05:03:54;;;;;;;1.58;1.35;;;;;;;4.73;100.00;97756.84;5056358;28;20174;-62
2023/01/21 05:06:19;;;;;;;3.03;2.40;;;;;;;4.61;100.00;97720.84;5055485;28;20707;-61
2023/01/21 05:08:44;;;;;;;2.45;2.35;;;;;;;4.38;100.00;97709.31;5055226;28;20653;-61
2023/01/21 05:11:14;;;;;;;3.97;2.53;;;;;;;4.25;100.00;97667.38;5055449;28;20257;-61
2023/01/21 05:13:39;;;;;;;1.30;1.30;;;;;;;4.67;100.00;97757.19;5055354;28;20178;-61
2023/01/21 05:16:07;;;;;;;1.30;1.20;;;;;;;4.27;100.00;97711.63;5055639;28;20169;-61
2023/01/21 05:18:32;;;;;;;1.20;1.20;;;;;;;4.41;100.00;97765.50;5055199;28;20197;-62
2023/01/21 05:20:58;;;;;;;1.67;1.58;;;;;;;4.34;100.00;97776.97;5052972;28;20190;-61
2023/01/21 05:23:24;;;;;;;1.10;1.10;;;;;;;4.41;100.00;97780.84;5053596;28;20189;-61
2023/01/21 05:25:49;;;;;;;2.72;2.53;;;;;;;4.41;100.00;97739.88;5052926;28;20273;-61
2023/01/21 05:28:14;;;;;;;2.42;2.22;;;;;;;4.59;100.00;97749.13;5052792;28;20273;-61
2023/01/21 05:30:40;;;;;;;3.70;2.22;;;;;;;4.54;100.00;97735.72;5053070;28;20695;-61
2023/01/21 05:33:05;;;;;;;3.70;3.13;;;;;;;4.67;100.00;97771.75;5053161;28;20273;-61
2023/01/21 05:35:34;;;;;;;3.88;3.42;;;;;;;4.42;100.00;97733.84;5052560;28;20185;-61
2023/01/21 05:37:59;;;;;;;2.00;1.90;;;;;;;4.26;100.00;97724.53;5053140;28;20698;-62
2023/01/21 05:40:24;;;;;;;1.63;1.52;;;;;;;4.65;100.00;97776.97;5052429;28;20217;-62
2023/01/21 05:42:50;;;;;;;2.72;2.30;;;;;;;4.57;100.00;97794.50;5032617;28;20202;-61
2023/01/21 05:45:15;;;;;;;2.50;2.10;;;;;;;4.33;100.00;97736.09;5032770;28;20186;-61
2023/01/21 05:47:41;;;;;;;1.40;1.30;;;;;;;4.42;100.00;97786.78;5032659;28;20187;-61
2023/01/21 05:50:07;;;;;;;1.00;1.00;;;;;;;4.26;100.00;97785.97;5012715;28;20690;-62
2023/01/21 05:52:33;;;;;;;1.35;1.35;;;;;;;4.60;100.00;97824.25;5013244;28;20203;-61
2023/01/21 05:54:58;;;;;;;1.60;1.50;;;;;;;4.46;100.00;97830.09;5013080;28;20278;-61
2023/01/21 05:57:24;;;;;;;3.40;2.00;;;;;;;4.57;100.00;97830.34;5012908;28;20209;-61
2023/01/21 05:59:49;;;;;;;1.70;1.60;;;;;;;4.62;100.00;97818.09;5012617;28;20298;-62
2023/01/21 06:02:14;;;;;;;1.90;1.80;;;;;;;4.68;100.00;97822.91;5012510;28;20249;-61
2023/01/21 06:04:40;;;;;;;2.83;2.30;;;;;;;4.55;100.00;97808.28;5012848;28;20274;-62
2023/01/21 06:07:05;;;;;;;1.90;1.80;;;;;;;4.26;100.00;97740.69;5012395;28;20178;-62
2023/01/21 06:09:30;;;;;;;2.72;1.90;;;;;;;4.28;100.00;97758.56;5012799;28;20274;-61
2023/01/21 06:11:56;;;;;;;1.38;1.33;;;;;;;4.60;100.00;97807.13;5012208;28;20650;-61
2023/01/21 06:14:21;;;;;;;1.27;1.27;;;;;;;4.21;100.00;97772.59;5041655;28;20224;-61
2023/01/21 06:16:47;;;;;;;1.10;1.00;;;;;;;4.40;100.00;97788.63;5051781;28;20252;-61
2023/01/21 06:19:14;;;;;;;1.10;1.10;;;;;;;4.06;100.00;97746.06;5052418;28;20739;-61
2023/01/21 06:21:39;;;;;;;1.30;1.30;;;;;;;4.39;100.00;97807.44;5054014;28;20190;-61
2023/01/21 06:24:05;;;;;;;1.20;1.20;;;;;;;4.57;100.00;97809.84;5053737;28;20196;-62
2023/01/21 06:26:30;;;;;;;1.30;1.20;;;;;;;4.64;100.00;97826.53;5054009;28;20182;-62
2023/01/21 06:28:56;;;;;;;1.70;1.60;;;;;;;4.51;100.00;97817.88;5071663;28;20702;-62
2023/01/21 06:31:22;;;;;;;4.72;3.63;;;;;;;4.36;100.00;97776.88;5071487;28;20196;-61
2023/01/21 06:33:47;;;;;;;5.47;3.90;;;;;;;4.54;100.00;97781.03;5072293;28;20662;-61
2023/01/21 06:36:13;;;;;;;13.60;5.90;;;;;;;4.83;100.00;97827.19;5071536;28;20224;-61
2023/01/21 06:38:38;;;;;;;18.30;11.82;;;;;;;4.56;100.00;97777.44;5071040;28;20220;-62
2023/01/21 06:41:04;;;;;;;25.60;14.40;;;;;;;4.41;100.00;97755.25;5070923;28;20748;-62
2023/01/21 06:43:29;;;;;;;29.45;18.02;;;;;;;4.88;100.00;97824.38;5071346;28;20291;-61
2023/01/21 06:45:55;;;;;;;28.48;16.30;;;;;;;4.92;100.00;97808.75;5071242;28;20243;-62
2023/01/21 06:48:20;;;;;;;29.58;18.33;;;;;;;4.91;100.00;97812.19;5071220;28;20310;-62
2023/01/21 06:50:46;;;;;;;41.15;21.60;;;;;;;4.99;100.00;97798.97;5071138;28;20735;-61
2023/01/21 06:53:11;;;;;;;36.65;21.38;;;;;;;5.24;100.00;97841.09;5071153;28;20750;-62
2023/01/21 06:55:37;;;;;;;35.00;19.30;;;;;;;5.27;100.00;97851.19;5071297;28;20189;-61
2023/01/21 06:58:03;;;;;;;35.00;19.85;;;;;;;4.99;100.00;97779.28;5071035;28;20654;-61
2023/01/21 07:00:28;;;;;;;40.33;20.02;;;;;;;5.26;100.00;97834.13;5057843;28;20300;-61
2023/01/21 07:02:58;;;;;;;34.30;20.10;;;;;;;4.70;100.00;97774.13;5053876;28;20173;-61
2023/01/21 07:05:24;;;;;;;33.80;19.40;;;;;;;4.77;100.00;97778.00;5053203;28;20557;-61
2023/01/21 07:07:52;;;;;;;37.78;22.50;;;;;;;4.71;100.00;97763.81;5053502;28;20235;-61
2023/01/21 07:10:17;;;;;;;46.30;25.83;;;;;;;5.03;100.00;97785.91;5053160;28;20185;-61
2023/01/21 07:12:43;;;;;;;44.33;22.92;;;;;;;5.36;100.00;97839.59;5053111;28;20178;-62
2023/01/21 07:15:08;;;;;;;42.05;22.40;;;;;;;5.33;100.00;97840.59;5052741;28;20664;-62
2023/01/21 07:17:34;;;;;;;43.35;21.90;;;;;;;5.20;100.00;97819.09;5053056;28;20200;-62
2023/01/21 07:19:59;;;;;;;51.55;24.98;;;;;;;5.34;100.00;97867.03;5052892;28;20216;-61
2023/01/21 07:22:25;;;;;;;80.68;27.42;;;;;;;5.08;100.00;97842.84;5052975;28;20186;-61
2023/01/21 07:24:50;;;;;;;97.97;29.00;;;;;;;5.06;100.00;97826.75;5052958;28;20189;-61
2023/01/21 07:27:15;;;;;;;71.32;29.58;;;;;;;4.86;100.00;97821.06;5052836;28;20209;-62
2023/01/21 07:29:41;;;;;;;56.20;26.90;;;;;;;4.96;100.00;97835.84;5052810;28;20188;-61
2023/01/21 07:32:06;;;;;;;61.05;28.80;;;;;;;4.92;100.00;97826.69;5053123;28;20170;-61
2023/01/21 07:34:32;;;;;;;63.33;30.17;;;;;;;4.83;100.00;97804.13;5052316;28;20188;-61
2023/01/21 07:36:57;;;;;;;55.08;26.75;;;;;;;5.09;100.00;97841.97;5052811;28;20205;-61
2023/01/21 07:39:22;;;;;;;50.55;27.23;;;;;;;4.46;100.00;97762.66;5052469;28;20209;-61
2023/01/21 07:41:48;;;;;;;57.63;26.67;;;;;;;4.81;100.00;97862.34;5052482;28;20652;-61
2023/01/21 07:44:13;;;;;;;61.55;28.65;;;;;;;4.75;100.00;97839.59;5053127;28;20264;-62
2023/01/21 07:46:39;;;;;;;61.95;31.05;;;;;;;4.43;100.00;97783.34;5053403;28;20180;-61
2023/01/21 07:49:04;;;;;;;59.97;30.30;;;;;;;4.82;100.00;97846.03;5052502;28;20554;-61
2023/01/21 07:51:29;;;;;;;58.33;27.85;;;;;;;4.99;100.00;97853.63;5052511;28;20178;-62
2023/01/21 07:53:55;;;;;;;53.08;26.42;;;;;;;5.09;100.00;97857.34;5051276;28;20272;-61
2023/01/21 07:56:21;;;;;;;54.85;26.88;;;;;;;4.47;100.00;97747.22;5052425;28;20181;-61
2023/01/21 07:58:46;;;;;;;59.53;28.60;;;;;;;5.14;100.00;97860.47;5052008;28;20181;-62
2023/01/21 08:01:12;;;;;;;56.13;28.70;;;;;;;5.00;100.00;97801.44;5052310;28;20224;-61
2023/01/21 08:03:38;;;;;;;48.42;26.27;;;;;;;5.61;100.00;97881.72;5052031;28;20182;-62
2023/01/21 08:06:05;;;;;;;53.65;26.52;;;;;;;5.41;100.00;97817.88;5052282;28;20174;-62
2023/01/21 08:08:31;;;;;;;49.20;27.77;;;;;;;5.63;100.00;97830.28;5052238;28;20178;-61
2023/01/21 08:10:56;;;;;;;51.17;29.58;;;;;;;5.85;100.00;97839.25;5051465;28;20208;-62
2023/01/21 08:13:22;;;;;;;59.42;29.77;;;;;;;6.15;100.00;97888.81;5050363;28;20567;-61
2023/01/21 08:15:52;;;;;;;66.57;32.35;;;;;;;6.35;100.00;97891.00;5052236;28;20628;-61
2023/01/21 08:18:18;;;;;;;63.78;28.15;;;;;;;6.46;100.00;97893.75;5052233;28;20648;-61
2023/01/21 08:20:44;;;;;;;61.92;27.80;;;;;;;6.08;100.00;97874.69;5051826;28;20201;-62
2023/01/21 08:23:09;;;;;;;62.53;28.95;;;;;;;5.93;100.00;97831.94;5052741;28;20177;-61
2023/01/21 08:25:35;;;;;;;67.57;30.45;;;;;;;5.82;100.00;97820.66;5052130;28;20174;-61
2023/01/21 08:28:00;;;;;;;63.58;27.52;;;;;;;6.29;100.00;97882.84;5049849;28;20185;-61
2023/01/21 08:30:26;;;;;;;62.60;26.90;;;;;;;6.36;100.00;97890.09;5049990;28;20649;-61
2023/01/21 08:32:51;;;;;;;64.28;23.75;;;;;;;6.17;100.00;97853.56;5050438;28;20193;-61
2023/01/21 08:35:17;;;;;;;50.13;23.30;;;;;;;6.28;100.00;97876.03;5049719;28;20184;-61
2023/01/21 08:37:42;;;;;;;64.38;24.38;;;;;;;6.20;100.00;97885.97;5050061;28;20267;-61
2023/01/21 08:40:08;;;;;;;70.45;25.50;;;;;;;5.77;100.00;97838.84;5049604;28;20201;-61
2023/01/21 08:42:34;;;;;;;67.03;26.70;;;;;;;5.79;100.00;97844.72;5049562;28;20190;-61
2023/01/21 08:44:59;;;;;;;60.38;27.30;;;;;;;5.41;100.00;97838.41;5049526;28;20265;-61
2023/01/21 08:47:24;;;;;;;57.65;26.17;;;;;;;5.53;100.00;97857.41;5049860;28;20198;-62
2023/01/21 08:49:50;;;;;;;63.22;28.50;;;;;;;5.77;100.00;97871.41;5049548;28;20648;-61
2023/01/21 08:52:19;;;;;;;50.88;25.55;;;;;;;5.78;100.00;97873.03;5049487;28;20191;-61
2023/01/21 08:54:44;;;;;;;48.22;25.48;;;;;;;5.80;100.00;97869.50;5049665;28;20272;-61
2023/01/21 08:57:10;;;;;;;53.30;27.08;;;;;;;5.94;100.00;97878.97;5049498;28;20261;-62
2023/01/21 08:59:36;;;;;;;51.00;25.98;;;;;;;6.07;100.00;97872.19;5051075;28;20224;-61
2023/01/21 09:02:01;;;;;;;46.47;22.90;;;;;;;5.78;100.00;97809.69;5051768;28;20827;-61
2023/01/21 09:04:26;;;;;;;44.38;24.52;;;;;;;6.13;100.00;97852.09;5052253;28;20223;-61
2023/01/21 09:06:52;;;;;;;45.35;22.92;;;;;;;6.13;100.00;97849.53;5055553;28;20269;-61
2023/01/21 09:09:17;;;;;;;46.65;24.13;;;;;;;5.69;100.00;97810.25;5055745;28;20182;-61
2023/01/21 09:11:43;;;;;;;44.05;21.85;;;;;;;5.74;100.00;97808.22;5055446;28;20640;-62
2023/01/21 09:14:09;;;;;;;41.72;24.00;;;;;;;6.14;100.00;97861.47;5055410;28;20301;-63
2023/01/21 09:16:35;;;;;;;50.30;25.27;;;;;;;6.06;100.00;97857.72;5055327;28;20312;-62
2023/01/21 09:19:01;;;;;;;46.70;26.25;;;;;;;6.14;100.00;97843.50;5055502;28;20185;-62
2023/01/21 09:21:28;;;;;;;51.80;26.73;;;;;;;6.00;100.00;97786.19;5055172;28;20186;-63
2023/01/21 09:23:54;;;;;;;53.85;27.20;;;;;;;6.11;100.00;97797.44;5055106;28;20182;-61
2023/01/21 09:26:22;;;;;;;60.28;28.48;;;;;;;6.06;100.00;97791.75;5055149;28;20209;-61
2023/01/21 09:28:59;;;;;;;51.22;27.50;;;;;;;5.92;100.00;97768.66;5055118;28;20177;-61
2023/01/21 09:31:26;;;;;;;59.38;29.40;;;;;;;6.02;100.00;97785.19;5054693;28;20185;-62
2023/01/21 09:33:55;;;;;;;58.03;28.33;;;;;;;6.29;100.00;97841.75;5055310;28;20166;-62
2023/01/21 09:36:23;;;;;;;52.72;27.23;;;;;;;6.05;100.00;97807.25;5055078;28;20276;-62
2023/01/21 09:38:50;;;;;;;49.65;26.30;;;;;;;6.41;100.00;97839.25;5054557;28;20178;-61
2023/01/21 09:41:28;;;;;;;47.97;26.02;;;;;;;6.47;100.00;97846.59;5054963;28;20181;-62
2023/01/21 09:43:58;;;;;;;48.20;26.30;;;;;;;6.28;100.00;97807.53;5055099;28;20518;-62
2023/01/21 09:46:33;;;;;;;44.55;25.27;;;;;;;6.55;100.00;97836.69;5054767;28;20181;-62
2023/01/21 09:49:01;;;;;;;46.15;23.85;;;;;;;6.72;100.00;97841.59;5055066;28;20214;-61
2023/01/21 09:51:58;;;;;;;46.95;25.20;;;;;;;6.80;100.00;97851.38;5055294;28;20667;-62
2023/01/21 09:54:30;;;;;;;46.42;24.30;;;;;;;6.28;100.00;97757.88;5053036;28;20286;-61
2023/01/21 09:57:14;;;;;;;42.30;22.48;;;;;;;6.99;100.00;97854.47;5052845;28;20174;-61
2023/01/21 10:00:00;;;;;;;48.97;25.88;;;;;;;6.90;100.00;97849.91;5052316;28;20699;-61
2023/01/21 10:02:44;;;;;;;39.42;23.60;;;;;;;7.00;100.00;97849.22;5052670;28;20626;-61
2023/01/21 10:05:28;;;;;;;49.03;26.65;;;;;;;7.03;100.00;97843.06;5052270;28;20268;-62
2023/01/21 10:07:53;;;;;;;48.00;26.50;;;;;;;7.16;100.00;97844.75;5052398;28;20226;-62
2023/01/21 10:10:35;;;;;;;40.97;23.38;;;;;;;7.26;100.00;97840.69;5052773;28;20221;-61
2023/01/21 10:13:19;;;;;;;41.47;22.85;;;;;;;7.35;100.00;97837.50;5052638;28;20235;-62
2023/01/21 10:16:05;;;;;;;36.13;20.83;;;;;;;7.47;100.00;97844.41;5051397;28;20565;-61
2023/01/21 10:18:33;;;;;;;29.85;18.98;;;;;;;7.36;100.00;97800.56;5052056;28;20675;-61
2023/01/21 10:21:12;;;;;;;34.97;20.27;;;;;;;7.39;100.00;97799.56;5012026;28;20215;-61
2023/01/21 10:23:42;;;;;;;31.85;18.88;;;;;;;7.09;100.00;97745.75;5012457;28;20210;-61
2023/01/21 10:26:11;;;;;;;31.17;19.20;;;;;;;7.40;100.00;97786.56;5012583;28;20630;-61
2023/01/21 10:28:47;;;;;;;37.92;21.20;;;;;;;7.45;100.00;97788.84;5011879;28;20225;-62
2023/01/21 10:31:23;;;;;;;36.53;20.35;;;;;;;7.10;100.00;97716.53;5012418;28;20197;-62
2023/01/21 10:33:48;;;;;;;31.20;19.67;;;;;;;7.53;100.00;97761.69;5011839;28;20205;-62
2023/01/21 10:36:32;;;;;;;28.58;17.95;;;;;;;7.68;100.00;97764.97;5012093;28;20207;-62
2023/01/21 10:39:22;;;;;;;27.80;17.08;;;;;;;7.74;100.00;97772.28;5012006;28;20211;-61
2023/01/21 10:41:54;;;;;;;21.30;13.18;;;;;;;7.76;100.00;97771.22;5011922;28;20221;-62
2023/01/21 10:44:44;;;;;;;19.17;12.98;;;;;;;7.80;100.00;97764.97;5012281;28;20171;-61
2023/01/21 10:47:50;;;;;;;21.23;13.00;;;;;;;7.90;100.00;97760.84;5012411;28;20218;-61
2023/01/21 10:50:38;;;;;;;36.80;17.92;;;;;;;7.98;100.00;97758.56;5011962;28;20198;-61
2023/01/21 10:53:14;;;;;;;30.77;18.55;;;;;;;8.16;100.00;97752.13;5051400;28;20193;-61
2023/01/21 10:56:13;;;;;;;33.75;21.98;;;;;;;8.30;100.00;97758.94;5053996;28;20526;-61
2023/01/21 10:58:50;;;;;;;35.03;21.55;;;;;;;8.33;100.00;97736.34;5053339;28;20641;-61
2023/01/21 11:01:28;;;;;;;34.60;21.73;;;;;;;8.21;100.00;97739.00;5052978;28;20559;-61
2023/01/21 11:03:58;;;;;;;29.50;18.67;;;;;;;8.01;100.00;97701.69;5054293;28;20184;-61
2023/01/21 11:06:24;;;;;;;114.32;49.92;;;;;;;7.74;100.00;97652.09;5053119;28;20193;-61
2023/01/21 11:08:55;;;;;;;107.63;45.75;;;;;;;8.18;100.00;97729.69;5053136;28;20221;-61
2023/01/21 11:11:27;;;;;;;62.05;29.15;;;;;;;8.28;100.00;97732.47;5053932;28;20174;-61
2023/01/21 11:13:53;;;;;;;27.02;16.23;;;;;;;7.93;100.00;97673.06;5053036;28;20260;-61
2023/01/21 11:16:38;;;;;;;24.17;15.18;;;;;;;8.32;100.00;97736.50;5053003;28;20204;-62
2023/01/21 11:19:05;;;;;;;63.92;32.15;;;;;;;7.94;100.00;97673.88;5053176;28;20178;-62
2023/01/21 11:21:31;;;;;;;33.28;17.55;;;;;;;8.25;100.00;97730.94;5052563;28;20182;-60
2023/01/21 11:23:59;;;;;;;24.67;14.73;;;;;;;8.18;100.00;97729.69;5052924;28;20753;-61
2023/01/21 11:26:29;;;;;;;23.58;14.90;;;;;;;8.33;100.00;97730.41;5052788;28;20234;-61
2023/01/21 11:29:10;;;;;;;29.20;17.10;;;;;;;8.43;100.00;97739.94;5030308;28;20616;-61
2023/01/21 11:31:36;;;;;;;26.60;16.20;;;;;;;8.31;100.00;97729.66;5030455;28;20209;-61
2023/01/21 11:34:16;;;;;;;25.80;15.52;;;;;;;8.07;100.00;97716.72;5030582;28;20317;-61
2023/01/21 11:37:18;;;;;;;24.73;15.52;;;;;;;8.32;100.00;97729.56;5030244;28;20209;-61
2023/01/21 11:39:59;;;;;;;32.97;17.13;;;;;;;8.21;100.00;97677.94;5031173;28;20288;-61
2023/01/21 11:42:25;;;;;;;28.80;16.23;;;;;;;8.26;100.00;97691.34;5030360;28;20182;-61